Time;durP1;ratioP1;P1;durP2;ratioP2;P2;SDS_P1;SDS_P2;PMS_P1;PMS_P2;Temp;Humidity;BMP_temperature;BMP_pressure;BME280_temperature;BME280_humidity;BME280_pressure;Samples;Min_cycle;Max_cycle;Signal;HPM_P1;HPM_P2
2022/05/28 00:01:14;;;;;;;11.10;3.95;;;18.10;72.40;;;;;;5015130;28;20026;-66
2022/05/28 00:03:40;;;;;;;11.40;3.90;;;18.00;72.10;;;;;;5015318;28;20030;-64
2022/05/28 00:06:10;;;;;;;12.88;4.00;;;18.00;72.50;;;;;;5015228;28;20030;-66
2022/05/28 00:08:36;;;;;;;11.80;4.40;;;18.00;72.40;;;;;;5014576;28;20026;-66
2022/05/28 00:11:09;;;;;;;13.93;4.72;;;17.90;72.50;;;;;;5014998;28;20030;-65
2022/05/28 00:13:35;;;;;;;14.77;4.63;;;17.90;72.80;;;;;;5013725;28;20110;-66
2022/05/28 00:16:01;;;;;;;17.73;4.47;;;17.90;72.70;;;;;;5014988;28;20065;-65
2022/05/28 00:18:28;;;;;;;14.18;4.20;;;17.90;72.70;;;;;;5015062;28;20029;-66
2022/05/28 00:20:53;;;;;;;12.13;3.97;;;17.90;72.30;;;;;;5014739;28;20435;-65
2022/05/28 00:23:18;;;;;;;13.52;4.53;;;17.80;72.70;;;;;;5014610;28;20482;-66
2022/05/28 00:25:44;;;;;;;14.77;4.53;;;17.80;72.60;;;;;;5014695;28;20088;-66
2022/05/28 00:28:09;;;;;;;15.43;3.58;;;17.70;72.70;;;;;;5014786;28;20068;-66
2022/05/28 00:30:35;;;;;;;11.73;3.92;;;17.70;72.90;;;;;;5014200;28;20034;-66
2022/05/28 00:33:01;;;;;;;10.35;3.90;;;17.70;72.90;;;;;;5014622;28;20132;-66
2022/05/28 00:35:26;;;;;;;12.60;4.13;;;17.70;73.00;;;;;;5014449;28;20057;-65
2022/05/28 00:37:52;;;;;;;14.07;4.65;;;17.70;73.00;;;;;;5014229;28;20530;-65
2022/05/28 00:40:21;;;;;;;12.15;3.92;;;17.70;72.80;;;;;;5014721;28;20038;-65
2022/05/28 00:42:47;;;;;;;13.38;4.95;;;17.60;73.00;;;;;;5013096;28;20033;-65
2022/05/28 00:45:13;;;;;;;13.25;4.03;;;17.60;72.80;;;;;;5014169;28;20109;-67
2022/05/28 00:47:48;;;;;;;14.50;4.60;;;17.60;73.10;;;;;;5013292;28;20061;-67
2022/05/28 00:50:15;;;;;;;10.57;4.18;;;17.60;73.10;;;;;;5008944;28;20025;-64
2022/05/28 00:52:41;;;;;;;13.13;4.47;;;17.50;72.70;;;;;;5014345;28;20108;-65
2022/05/28 00:55:07;;;;;;;9.73;3.80;;;17.50;73.10;;;;;;4996321;28;20030;-66
2022/05/28 00:57:33;;;;;;;12.88;4.20;;;17.50;73.50;;;;;;5011007;28;20070;-63
2022/05/28 00:59:58;;;;;;;10.75;3.92;;;17.50;73.40;;;;;;5013139;28;20487;-66
2022/05/28 01:02:48;;;;;;;9.70;4.38;;;17.50;73.60;;;;;;5013541;28;20030;-66
2022/05/28 01:05:28;;;;;;;15.55;4.68;;;17.40;73.60;;;;;;5013353;28;20037;-66
2022/05/28 01:08:31;;;;;;;9.70;4.15;;;17.50;73.60;;;;;;5013593;28;20038;-67
2022/05/28 01:11:19;;;;;;;14.55;4.75;;;17.50;74.00;;;;;;5014005;28;20037;-67
2022/05/28 01:13:45;;;;;;;11.85;4.78;;;17.40;73.60;;;;;;5013105;28;20044;-66
2022/05/28 01:16:45;;;;;;;13.95;4.65;;;17.40;74.10;;;;;;5012171;28;20029;-65
2022/05/28 01:19:48;;;;;;;12.98;3.90;;;17.30;74.10;;;;;;4981473;28;20100;-66
2022/05/28 01:22:37;;;;;;;15.30;3.78;;;17.40;73.90;;;;;;4994062;28;20042;-66
2022/05/28 01:25:02;;;;;;;11.63;4.05;;;17.40;73.20;;;;;;4992608;28;20038;-67
2022/05/28 01:27:32;;;;;;;9.80;4.32;;;17.50;73.10;;;;;;4994175;28;20034;-66
2022/05/28 01:30:04;;;;;;;14.57;4.60;;;17.50;72.80;;;;;;4993574;28;20026;-60
2022/05/28 01:32:31;;;;;;;13.02;4.75;;;17.50;73.00;;;;;;4994362;28;20035;-64
2022/05/28 01:35:00;;;;;;;12.65;4.07;;;17.50;73.10;;;;;;4993589;28;20042;-60
2022/05/28 01:37:26;;;;;;;13.82;4.85;;;17.50;72.90;;;;;;4976475;28;20057;-66
2022/05/28 01:39:54;;;;;;;12.15;4.10;;;17.50;73.10;;;;;;4993920;28;20046;-67
2022/05/28 01:42:20;;;;;;;12.98;4.63;;;17.40;73.30;;;;;;4993083;28;20117;-66
2022/05/28 01:44:47;;;;;;;11.27;4.32;;;17.40;73.10;;;;;;4993986;28;20120;-66
2022/05/28 01:47:15;;;;;;;13.48;5.03;;;17.50;73.40;;;;;;4993537;28;20038;-65
2022/05/28 01:49:41;;;;;;;13.85;4.75;;;17.40;73.40;;;;;;4993667;28;20101;-67
2022/05/28 01:52:09;;;;;;;11.43;4.05;;;17.40;73.30;;;;;;4993576;28;20030;-67
2022/05/28 01:54:39;;;;;;;13.32;4.55;;;17.40;73.10;;;;;;4993847;28;20041;-67
2022/05/28 01:57:05;;;;;;;12.40;4.18;;;17.40;73.20;;;;;;4993544;28;20100;-66
2022/05/28 01:59:35;;;;;;;12.95;4.85;;;17.40;73.50;;;;;;4993533;28;20491;-67
2022/05/28 02:02:03;;;;;;;10.20;4.70;;;17.40;73.30;;;;;;4993653;28;20038;-67
2022/05/28 02:04:30;;;;;;;17.20;5.03;;;17.40;73.50;;;;;;4993401;28;20110;-66
2022/05/28 02:06:56;;;;;;;10.85;4.53;;;17.40;73.50;;;;;;4993335;28;20027;-64
2022/05/28 02:09:27;;;;;;;14.90;5.22;;;17.30;73.40;;;;;;4993610;28;20037;-66
2022/05/28 02:12:19;;;;;;;14.38;5.15;;;17.30;73.40;;;;;;5002182;28;20104;-66
2022/05/28 02:14:55;;;;;;;15.23;4.38;;;17.30;73.50;;;;;;5011916;28;20372;-66
2022/05/28 02:17:57;;;;;;;14.68;4.57;;;17.30;73.30;;;;;;5011194;28;20037;-67
2022/05/28 02:20:35;;;;;;;12.77;4.82;;;17.30;73.20;;;;;;4972053;28;20133;-67
2022/05/28 02:23:14;;;;;;;13.90;4.60;;;17.20;73.20;;;;;;5013012;28;20379;-67
2022/05/28 02:25:54;;;;;;;10.32;4.60;;;17.20;73.60;;;;;;5011130;28;20063;-66
2022/05/28 02:28:23;;;;;;;12.63;4.63;;;17.20;73.80;;;;;;5008945;28;20040;-66
2022/05/28 02:30:54;;;;;;;12.20;4.18;;;17.20;73.70;;;;;;5013114;28;20036;-66
2022/05/28 02:33:20;;;;;;;16.23;5.20;;;17.20;73.60;;;;;;5012638;28;20041;-66
2022/05/28 02:35:46;;;;;;;16.85;5.05;;;17.10;73.60;;;;;;5005725;28;20057;-64
2022/05/28 02:38:13;;;;;;;12.27;4.82;;;17.20;73.90;;;;;;4992747;28;20446;-59
2022/05/28 02:40:40;;;;;;;15.27;5.13;;;17.10;74.00;;;;;;4993416;28;20047;-67
2022/05/28 02:43:06;;;;;;;17.98;5.55;;;17.10;73.80;;;;;;4993162;28;20038;-67
2022/05/28 02:45:31;;;;;;;16.48;5.10;;;17.10;74.10;;;;;;4993269;28;20034;-66
2022/05/28 02:47:57;;;;;;;14.57;5.38;;;17.10;74.00;;;;;;4994913;28;20058;-65
2022/05/28 02:50:26;;;;;;;13.25;5.20;;;17.10;73.90;;;;;;5012619;28;20030;-65
2022/05/28 02:52:52;;;;;;;11.88;4.53;;;17.00;74.10;;;;;;5013521;28;20124;-64
2022/05/28 02:55:18;;;;;;;11.88;5.53;;;17.10;74.10;;;;;;5016019;28;20105;-66
2022/05/28 02:57:44;;;;;;;13.43;4.72;;;17.00;74.30;;;;;;5016303;28;20042;-61
2022/05/28 03:00:10;;;;;;;16.98;5.47;;;17.00;74.60;;;;;;5016251;28;20171;-63
2022/05/28 03:02:36;;;;;;;14.93;5.35;;;17.00;74.50;;;;;;5015989;28;20057;-64
2022/05/28 03:05:01;;;;;;;14.45;4.60;;;17.00;74.30;;;;;;5016298;28;20069;-64
2022/05/28 03:07:27;;;;;;;12.02;5.07;;;17.00;74.60;;;;;;5016267;28;20064;-63
2022/05/28 03:09:53;;;;;;;12.48;5.38;;;16.90;74.70;;;;;;5016136;28;20491;-65
2022/05/28 03:12:19;;;;;;;11.73;5.10;;;16.90;74.90;;;;;;5016147;28;20544;-66
2022/05/28 03:14:44;;;;;;;11.40;4.68;;;16.90;75.00;;;;;;5016203;28;20029;-67
2022/05/28 03:17:10;;;;;;;11.68;4.88;;;16.90;74.90;;;;;;5015520;28;20483;-66
2022/05/28 03:19:35;;;;;;;15.13;5.47;;;16.90;75.80;;;;;;5016044;28;20026;-62
2022/05/28 03:22:01;;;;;;;13.65;5.40;;;16.90;75.20;;;;;;5016086;28;20045;-66
2022/05/28 03:24:26;;;;;;;11.70;4.95;;;16.80;75.20;;;;;;5015732;28;20030;-67
2022/05/28 03:26:54;;;;;;;13.07;4.80;;;16.80;75.30;;;;;;5016007;28;20080;-65
2022/05/28 03:29:19;;;;;;;16.27;5.53;;;16.80;75.30;;;;;;5015543;28;20418;-66
2022/05/28 03:31:45;;;;;;;12.70;5.40;;;16.80;75.50;;;;;;5015701;28;20037;-64
2022/05/28 03:34:10;;;;;;;14.55;5.20;;;16.80;75.50;;;;;;5015556;28;20022;-63
2022/05/28 03:36:36;;;;;;;12.23;5.00;;;16.80;75.50;;;;;;5015528;28;20463;-65
2022/05/28 03:39:02;;;;;;;15.52;5.13;;;16.80;75.50;;;;;;5015588;28;20029;-66
2022/05/28 03:41:28;;;;;;;16.95;5.43;;;16.70;75.70;;;;;;5015797;28;20038;-60
2022/05/28 03:43:54;;;;;;;13.75;5.25;;;16.70;75.80;;;;;;5015610;28;20026;-65
2022/05/28 03:46:26;;;;;;;13.27;4.97;;;16.70;75.80;;;;;;5015316;28;20464;-65
2022/05/28 03:48:55;;;;;;;;;;;16.70;76.00;;;;;;5015736;28;20493;-59
2022/05/28 03:51:20;;;;;;;10.98;4.68;;;16.70;75.70;;;;;;5015428;28;20317;-63
2022/05/28 03:53:46;;;;;;;12.43;5.47;;;16.60;76.10;;;;;;5015313;28;20029;-67
2022/05/28 03:56:12;;;;;;;13.43;4.93;;;16.60;76.30;;;;;;5015213;28;20118;-66
2022/05/28 03:58:37;;;;;;;14.00;5.22;;;16.60;76.40;;;;;;5015340;28;20034;-67
2022/05/28 04:01:03;;;;;;;13.82;4.80;;;16.60;76.40;;;;;;4997473;28;20044;-65
2022/05/28 04:03:28;;;;;;;13.80;5.05;;;16.60;76.70;;;;;;5014696;28;20146;-66
2022/05/28 04:05:54;;;;;;;15.27;5.03;;;16.50;76.70;;;;;;5014794;28;20053;-67
2022/05/28 04:08:19;;;;;;;14.95;4.88;;;16.60;76.80;;;;;;5014911;28;20040;-66
2022/05/28 04:10:45;;;;;;;9.25;4.35;;;16.60;76.80;;;;;;5015126;28;20038;-65
2022/05/28 04:13:10;;;;;;;16.30;5.43;;;16.50;77.50;;;;;;5015098;28;20080;-65
2022/05/28 04:15:36;;;;;;;11.98;4.80;;;16.50;77.10;;;;;;4997139;28;20076;-66
2022/05/28 04:18:02;;;;;;;13.68;4.45;;;16.50;77.30;;;;;;5014860;28;20029;-67
2022/05/28 04:20:27;;;;;;;12.30;5.30;;;16.50;77.40;;;;;;5014623;28;20475;-66
2022/05/28 04:22:53;;;;;;;10.80;4.85;;;16.50;77.50;;;;;;5014853;28;20033;-67
2022/05/28 04:25:19;;;;;;;10.85;4.43;;;16.50;77.70;;;;;;5014761;28;20022;-66
2022/05/28 04:27:44;;;;;;;14.32;5.10;;;16.50;77.90;;;;;;5014752;28;20030;-66
2022/05/28 04:30:11;;;;;;;13.82;4.80;;;16.50;78.10;;;;;;5014789;28;20061;-62
2022/05/28 04:32:37;;;;;;;13.32;5.05;;;16.50;78.40;;;;;;5014699;28;20359;-66
2022/05/28 04:35:02;;;;;;;11.98;4.10;;;16.50;78.50;;;;;;5014567;28;20468;-67
2022/05/28 04:37:28;;;;;;;15.13;5.78;;;16.50;78.80;;;;;;5014431;28;20045;-65
2022/05/28 04:39:53;;;;;;;10.82;4.75;;;16.50;79.60;;;;;;5014238;28;20546;-66
2022/05/28 04:42:19;;;;;;;8.50;3.72;;;16.40;79.00;;;;;;5014419;28;20471;-67
2022/05/28 04:44:44;;;;;;;9.52;3.88;;;16.40;79.50;;;;;;5014439;28;20045;-66
2022/05/28 04:47:10;;;;;;;10.95;4.03;;;16.30;79.50;;;;;;5014501;28;20033;-67
2022/05/28 04:49:35;;;;;;;14.90;4.20;;;16.40;79.40;;;;;;5014230;28;20056;-66
2022/05/28 04:52:01;;;;;;;14.40;4.15;;;16.40;79.30;;;;;;5014166;28;20044;-63
2022/05/28 04:54:27;;;;;;;14.15;3.90;;;16.40;79.60;;;;;;5014268;28;20058;-66
2022/05/28 04:56:52;;;;;;;9.75;3.17;;;16.40;79.60;;;;;;5013934;28;20033;-65
2022/05/28 04:59:18;;;;;;;11.45;3.15;;;16.40;79.80;;;;;;5014005;28;20497;-66
2022/05/28 05:01:44;;;;;;;13.43;3.88;;;16.40;80.00;;;;;;5007865;28;20033;-65
2022/05/28 05:04:09;;;;;;;13.10;3.30;;;16.40;80.00;;;;;;5013655;28;20434;-66
2022/05/28 05:06:35;;;;;;;10.75;3.63;;;16.40;80.20;;;;;;5011607;28;20437;-66
2022/05/28 05:09:00;;;;;;;11.65;4.50;;;16.40;80.50;;;;;;5014136;28;20113;-64
2022/05/28 05:11:26;;;;;;;10.75;3.83;;;16.40;80.50;;;;;;5013556;28;20057;-66
2022/05/28 05:13:51;;;;;;;9.63;4.13;;;16.40;80.80;;;;;;5013924;28;20037;-66
2022/05/28 05:16:18;;;;;;;10.27;3.30;;;16.40;81.00;;;;;;5013673;28;20022;-65
2022/05/28 05:18:44;;;;;;;7.90;2.58;;;16.40;81.30;;;;;;5013906;28;20037;-66
2022/05/28 05:21:12;;;;;;;10.23;2.83;;;16.40;81.80;;;;;;5008593;28;20095;-62
2022/05/28 05:23:41;;;;;;;9.05;2.95;;;16.30;81.90;;;;;;4997345;28;20030;-67
2022/05/28 05:26:17;;;;;;;9.02;2.65;;;16.40;82.10;;;;;;5003311;28;20109;-66
2022/05/28 05:28:43;;;;;;;12.98;3.28;;;16.40;82.20;;;;;;5004568;28;20030;-66
2022/05/28 05:31:09;;;;;;;9.50;2.65;;;16.40;82.80;;;;;;5003325;28;20034;-62
2022/05/28 05:33:34;;;;;;;6.40;2.90;;;16.40;82.80;;;;;;5007308;28;20105;-63
2022/05/28 05:36:00;;;;;;;6.45;2.85;;;16.40;83.50;;;;;;5011949;28;20041;-64
2022/05/28 05:38:26;;;;;;;12.07;2.92;;;16.50;84.40;;;;;;5006991;28;20046;-66
2022/05/28 05:40:52;;;;;;;13.30;2.38;;;16.60;85.00;;;;;;5010038;28;20030;-66
2022/05/28 05:43:19;;;;;;;9.10;2.45;;;16.70;85.30;;;;;;5001960;28;20065;-66
2022/05/28 05:45:58;;;;;;;9.40;3.15;;;16.70;85.70;;;;;;4997317;28;20478;-66
2022/05/28 05:48:24;;;;;;;9.15;2.17;;;16.80;85.70;;;;;;5012775;28;20113;-66
2022/05/28 05:50:50;;;;;;;7.60;2.10;;;16.90;85.70;;;;;;4995427;28;20130;-66
2022/05/28 05:53:16;;;;;;;12.85;2.60;;;16.90;85.50;;;;;;5002511;28;20535;-64
2022/05/28 05:55:42;;;;;;;8.68;2.58;;;17.00;85.80;;;;;;4997392;28;20054;-65
2022/05/28 05:58:08;;;;;;;9.75;2.33;;;17.10;85.40;;;;;;5005958;28;20073;-71
2022/05/28 06:00:33;;;;;;;9.88;2.70;;;17.20;85.40;;;;;;4988395;28;20038;-66
2022/05/28 06:02:59;;;;;;;7.15;1.98;;;17.20;85.70;;;;;;5011791;28;20080;-67
2022/05/28 06:05:24;;;;;;;10.23;2.13;;;17.30;85.80;;;;;;5011219;28;20030;-66
2022/05/28 06:07:50;;;;;;;13.75;2.42;;;17.40;85.30;;;;;;5012012;28;20037;-65
2022/05/28 06:10:16;;;;;;;8.27;1.70;;;17.50;85.10;;;;;;5011215;28;20515;-67
2022/05/28 06:12:42;;;;;;;10.43;2.08;;;17.50;84.90;;;;;;5009419;28;20280;-66
2022/05/28 06:15:08;;;;;;;8.35;1.90;;;17.60;84.50;;;;;;5009883;28;20044;-67
2022/05/28 06:17:35;;;;;;;8.10;2.10;;;17.70;84.40;;;;;;4997327;28;20141;-67
2022/05/28 06:20:02;;;;;;;8.88;2.28;;;17.70;83.70;;;;;;5008304;28;20478;-67
2022/05/28 06:22:28;;;;;;;7.85;1.83;;;17.80;84.00;;;;;;5011754;28;20042;-67
2022/05/28 06:24:54;;;;;;;11.57;2.20;;;17.90;84.10;;;;;;5007404;28;20479;-64
2022/05/28 06:27:20;;;;;;;9.18;2.00;;;18.00;83.40;;;;;;5011756;28;20037;-66
2022/05/28 06:29:45;;;;;;;8.88;2.15;;;18.00;83.20;;;;;;5015712;28;20030;-67
2022/05/28 06:32:11;;;;;;;5.78;1.45;;;18.10;82.60;;;;;;5006809;28;20022;-65
2022/05/28 06:34:37;;;;;;;7.40;1.73;;;18.10;82.00;;;;;;5016174;28;20041;-66
2022/05/28 06:37:06;;;;;;;8.13;1.73;;;18.20;81.80;;;;;;5003964;28;20041;-59
2022/05/28 06:39:33;;;;;;;6.13;1.25;;;18.20;81.10;;;;;;5000067;28;20041;-64
2022/05/28 06:41:59;;;;;;;8.32;1.35;;;18.20;79.50;;;;;;5013390;28;20034;-60
2022/05/28 06:44:25;;;;;;;7.70;0.93;;;18.30;78.70;;;;;;5015998;28;20048;-65
2022/05/28 06:46:51;;;;;;;6.13;1.05;;;18.30;77.80;;;;;;5015191;28;20356;-65
2022/05/28 06:49:16;;;;;;;6.57;1.58;;;18.40;78.30;;;;;;5013562;28;20096;-64
2022/05/28 06:51:42;;;;;;;4.63;1.27;;;18.40;78.10;;;;;;5010827;28;20034;-61
2022/05/28 06:54:07;;;;;;;4.70;0.88;;;18.40;77.30;;;;;;5014416;28;20037;-66
2022/05/28 06:56:33;;;;;;;8.68;1.58;;;18.20;77.00;;;;;;5004823;28;20038;-65
2022/05/28 06:58:59;;;;;;;6.18;1.27;;;18.20;77.50;;;;;;5007645;28;20037;-66
2022/05/28 07:01:24;;;;;;;9.45;1.05;;;18.20;78.60;;;;;;5015683;28;20375;-64
2022/05/28 07:03:50;;;;;;;4.75;0.80;;;18.20;75.40;;;;;;5015070;28;20026;-65
2022/05/28 07:06:16;;;;;;;5.43;1.15;;;18.10;75.90;;;;;;5013580;28;20033;-65
2022/05/28 07:08:42;;;;;;;5.55;1.08;;;18.10;76.10;;;;;;5015222;28;20026;-65
2022/05/28 07:11:08;;;;;;;7.88;1.40;;;18.30;77.50;;;;;;5014756;28;20030;-65
2022/05/28 07:13:35;;;;;;;6.38;1.10;;;18.40;76.30;;;;;;5010620;28;20026;-65
2022/05/28 07:16:01;;;;;;;4.65;0.70;;;18.40;74.90;;;;;;5013681;28;20032;-63
2022/05/28 07:18:26;;;;;;;6.72;0.75;;;18.00;73.90;;;;;;5014106;28;20038;-65
2022/05/28 07:20:52;;;;;;;5.78;1.27;;;18.20;77.40;;;;;;5013726;28;20034;-64
2022/05/28 07:23:23;;;;;;;5.68;0.70;;;18.40;76.80;;;;;;5009031;28;20072;-65
2022/05/28 07:25:53;;;;;;;7.43;0.95;;;18.50;74.20;;;;;;4995440;28;20038;-64
2022/05/28 07:28:28;;;;;;;5.30;0.95;;;18.50;76.40;;;;;;5012740;28;20558;-65
2022/05/28 07:31:22;;;;;;;4.65;1.23;;;18.50;76.10;;;;;;5003814;28;20034;-63
2022/05/28 07:33:49;;;;;;;6.25;1.05;;;18.50;75.90;;;;;;4995740;28;20105;-65
2022/05/28 07:36:18;;;;;;;4.63;0.50;;;18.50;72.90;;;;;;5005303;28;20474;-60
2022/05/28 07:38:44;;;;;;;3.58;0.63;;;18.40;70.20;;;;;;5008707;28;20478;-65
2022/05/28 07:41:13;;;;;;;3.30;0.60;;;18.20;70.50;;;;;;5012901;28;20053;-65
2022/05/28 07:43:38;;;;;;;4.43;0.55;;;18.20;71.30;;;;;;4998291;28;20030;-65
2022/05/28 07:46:11;;;;;;;4.65;0.82;;;18.40;71.50;;;;;;5008311;28;20100;-64
2022/05/28 07:48:36;;;;;;;3.13;0.52;;;18.40;71.20;;;;;;5000299;28;20088;-57
2022/05/28 07:51:02;;;;;;;40.60;5.03;;;18.20;71.90;;;;;;5005324;28;20470;-64
2022/05/28 07:53:27;;;;;;;4.25;0.80;;;18.40;73.20;;;;;;5013095;28;20176;-66
2022/05/28 07:55:53;;;;;;;4.78;0.88;;;18.60;71.70;;;;;;5012544;28;20030;-60
2022/05/28 07:58:20;;;;;;;4.03;0.73;;;18.80;71.50;;;;;;5012083;28;20049;-65
2022/05/28 08:00:48;;;;;;;6.43;0.93;;;19.00;69.50;;;;;;5012721;28;20033;-63
2022/05/28 08:03:15;;;;;;;5.50;0.70;;;19.10;69.60;;;;;;5006282;28;20160;-64
2022/05/28 08:05:44;;;;;;;8.60;0.80;;;19.20;70.00;;;;;;5006317;28;20042;-61
2022/05/28 08:08:10;;;;;;;4.60;0.80;;;19.20;71.60;;;;;;5010640;28;20045;-65
2022/05/28 08:10:36;;;;;;;5.85;0.70;;;19.30;71.70;;;;;;5010351;28;20066;-64
2022/05/28 08:13:04;;;;;;;3.78;0.52;;;19.40;70.70;;;;;;5006567;28;20433;-64
2022/05/28 08:15:30;;;;;;;4.22;0.50;;;19.50;69.80;;;;;;5001056;28;20038;-65
2022/05/28 08:17:56;;;;;;;4.93;0.70;;;19.50;69.60;;;;;;5009234;28;20030;-65
2022/05/28 08:23:08;;;;;;;3.20;0.70;;;19.60;69.70;;;;;;5003990;28;20562;-65
2022/05/28 08:23:10;;;;;;;4.88;0.73;;;19.70;69.50;;;;;;5001835;28;20033;-64
2022/05/28 08:25:36;;;;;;;2.40;0.45;;;19.70;67.50;;;;;;5002314;28;20411;-65
2022/05/28 08:28:02;;;;;;;2.90;0.57;;;19.80;67.30;;;;;;5008647;28;20030;-65
2022/05/28 08:30:28;;;;;;;4.90;0.98;;;19.80;68.40;;;;;;5001760;28;20042;-64
2022/05/28 08:32:53;;;;;;;4.88;0.80;;;19.90;68.40;;;;;;5007313;28;20096;-65
2022/05/28 08:35:20;;;;;;;4.78;0.90;;;19.90;66.10;;;;;;5001982;28;20072;-64
2022/05/28 08:37:45;;;;;;;3.13;0.45;;;19.90;65.70;;;;;;5009806;28;20045;-64
2022/05/28 08:40:13;;;;;;;4.50;0.60;;;20.00;61.60;;;;;;5006137;28;20030;-65
2022/05/28 08:42:40;;;;;;;1.98;0.40;;;20.00;63.40;;;;;;5003569;28;20026;-65
2022/05/28 08:45:06;;;;;;;7.05;0.98;;;20.00;63.10;;;;;;5004327;28;20069;-64
2022/05/28 08:47:38;;;;;;;6.93;0.70;;;20.10;64.50;;;;;;5006256;28;20080;-65
2022/05/28 08:50:06;;;;;;;6.88;1.20;;;20.10;64.90;;;;;;5007262;28;20482;-65
2022/05/28 08:52:53;;;;;;;6.43;0.90;;;20.10;65.10;;;;;;5007128;28;20038;-63
2022/05/28 08:55:24;;;;;;;5.05;0.93;;;20.20;68.20;;;;;;5002513;28;20109;-65
2022/05/28 08:58:07;;;;;;;3.90;0.95;;;20.10;67.70;;;;;;5004154;28;20034;-64
2022/05/28 09:00:38;;;;;;;4.20;0.63;;;20.20;67.10;;;;;;5001563;28;20038;-64
2022/05/28 09:03:15;;;;;;;4.83;0.93;;;20.20;67.40;;;;;;5009125;28;20364;-63
2022/05/28 09:05:54;;;;;;;5.22;1.05;;;20.20;65.80;;;;;;5001866;28;20033;-64
2022/05/28 09:08:30;;;;;;;3.10;0.88;;;20.30;65.60;;;;;;5007126;28;20030;-59
2022/05/28 09:11:02;;;;;;;3.50;0.90;;;20.30;63.90;;;;;;5008709;28;20030;-62
2022/05/28 09:13:36;;;;;;;6.18;0.82;;;20.30;63.70;;;;;;5010683;28;20105;-58
2022/05/28 09:16:04;;;;;;;4.82;0.60;;;20.30;65.40;;;;;;5007178;28;20137;-59
2022/05/28 09:18:35;;;;;;;2.58;0.60;;;20.30;62.20;;;;;;5003484;28;20441;-62
2022/05/28 09:21:01;;;;;;;4.90;0.50;;;20.30;62.10;;;;;;5001169;28;20029;-65
2022/05/28 09:23:27;;;;;;;2.50;0.60;;;20.40;61.00;;;;;;5013629;28;20107;-65
2022/05/28 09:25:58;;;;;;;5.78;0.57;;;20.40;62.40;;;;;;5007609;28;20049;-64
2022/05/28 09:28:52;;;;;;;3.75;0.85;;;20.40;63.50;;;;;;5002499;28;20108;-64
2022/05/28 09:32:09;;;;;;;4.85;0.60;;;20.40;62.10;;;;;;4952674;28;20046;-65
2022/05/28 09:34:46;;;;;;;5.00;0.90;;;20.40;63.40;;;;;;4959802;28;20041;-65
2022/05/28 09:37:52;;;;;;;2.97;0.90;;;20.40;61.90;;;;;;5000960;28;20037;-65
2022/05/28 09:40:36;;;;;;;4.18;0.93;;;20.40;62.60;;;;;;5007335;28;20042;-63
2022/05/28 09:43:19;;;;;;;3.28;0.60;;;20.40;62.60;;;;;;4999402;28;20101;-62
2022/05/28 09:45:53;;;;;;;2.30;0.63;;;20.40;63.60;;;;;;5004089;28;20044;-65
2022/05/28 09:48:22;;;;;;;3.00;0.40;;;20.40;63.00;;;;;;5006483;28;20429;-68
2022/05/28 09:50:48;;;;;;;3.88;0.40;;;20.40;61.90;;;;;;5004392;28;20442;-64
2022/05/28 09:56:36;;;;;;;3.67;0.55;;;20.50;62.20;;;;;;4994425;28;20122;-64
2022/05/28 09:59:18;;;;;;;9.60;0.82;;;20.50;62.40;;;;;;5002857;28;20048;-61
2022/05/28 10:01:59;;;;;;;2.73;0.43;;;20.50;63.40;;;;;;4997711;28;20471;-65
2022/05/28 10:04:29;;;;;;;3.47;0.50;;;20.50;61.00;;;;;;5000248;28;20280;-64
2022/05/28 10:06:57;;;;;;;3.42;0.80;;;20.50;62.60;;;;;;5000003;28;20030;-59
2022/05/28 10:09:29;;;;;;;6.15;0.88;;;20.50;61.00;;;;;;5011397;28;20038;-60
2022/05/28 10:12:23;;;;;;;4.95;0.60;;;20.50;62.10;;;;;;5009749;28;20490;-64
2022/05/28 10:15:09;;;;;;;10.82;8.07;;;20.50;63.20;;;;;;4995645;28;20464;-65
2022/05/28 10:17:36;;;;;;;5.43;1.40;;;20.60;65.20;;;;;;5011360;28;20029;-67
2022/05/28 10:20:05;;;;;;;11.00;6.45;;;20.60;60.70;;;;;;4993894;28;20134;-64
2022/05/28 10:22:31;;;;;;;4.65;1.95;;;20.60;65.20;;;;;;5012229;28;20038;-65
2022/05/28 10:25:09;;;;;;;8.15;4.50;;;20.60;61.70;;;;;;5012438;28;20479;-60
2022/05/28 10:27:47;;;;;;;13.23;5.53;;;20.60;64.70;;;;;;5009547;28;20483;-64
2022/05/28 10:30:23;;;;;;;6.65;3.17;;;20.60;66.40;;;;;;5006193;28;20034;-65
2022/05/28 10:32:51;;;;;;;5.88;1.10;;;20.60;62.70;;;;;;4993097;28;20523;-64
2022/05/28 10:35:20;;;;;;;6.70;2.35;;;20.70;59.90;;;;;;5000131;28;20710;-64
2022/05/28 10:37:46;;;;;;;5.25;1.15;;;20.70;61.30;;;;;;5010365;28;20030;-64
2022/05/28 10:40:15;;;;;;;7.78;1.30;;;20.70;59.10;;;;;;5004739;28;20565;-65
2022/05/28 10:42:40;;;;;;;6.82;2.20;;;20.60;59.00;;;;;;5005148;28;21261;-64
2022/05/28 10:45:07;;;;;;;6.45;1.95;;;20.60;61.00;;;;;;5005310;28;20420;-64
2022/05/28 10:47:39;;;;;;;14.27;4.95;;;20.60;60.70;;;;;;5011581;28;20533;-62
2022/05/28 10:50:12;;;;;;;5.90;1.42;;;20.60;65.30;;;;;;5003530;28;20033;-63
2022/05/28 10:52:56;;;;;;;7.43;2.47;;;20.70;61.80;;;;;;5011477;28;20386;-62
2022/05/28 10:55:44;;;;;;;7.07;2.78;;;20.70;63.40;;;;;;5020469;28;20073;-63
2022/05/28 10:58:35;;;;;;;4.65;0.88;;;20.70;63.30;;;;;;4962639;28;20047;-62
2022/05/28 11:01:22;;;;;;;6.38;1.30;;;20.70;60.10;;;;;;4992894;28;20559;-58
2022/05/28 11:03:48;;;;;;;5.70;1.25;;;20.70;60.20;;;;;;4994700;28;20038;-63
2022/05/28 11:06:35;;;;;;;4.90;2.00;;;20.70;60.60;;;;;;5012622;28;20038;-63
2022/05/28 11:09:10;;;;;;;7.68;0.93;;;20.80;62.10;;;;;;5028830;28;20084;-63
2022/05/28 11:12:03;;;;;;;6.00;1.85;;;20.70;59.60;;;;;;5032312;28;20079;-63
2022/05/28 11:14:41;;;;;;;3.42;1.27;;;20.70;60.70;;;;;;5022788;28;20030;-63
2022/05/28 11:17:12;;;;;;;5.00;1.10;;;20.70;61.10;;;;;;5000601;28;20048;-64
2022/05/28 11:20:01;;;;;;;6.45;2.03;;;20.70;60.10;;;;;;5001623;28;20100;-63
2022/05/28 11:22:31;;;;;;;6.95;1.35;;;20.80;63.10;;;;;;5000008;28;20049;-63
2022/05/28 11:25:05;;;;;;;4.15;1.08;;;20.80;61.40;;;;;;5007323;28;20387;-63
2022/05/28 11:28:01;;;;;;;5.13;1.05;;;20.70;61.50;;;;;;5004481;28;20492;-63
2022/05/28 11:30:33;;;;;;;5.78;0.95;;;20.80;60.20;;;;;;5008171;28;20034;-62
2022/05/28 11:33:01;;;;;;;7.28;0.85;;;20.80;59.70;;;;;;5009905;28;20205;-63
2022/05/28 11:35:49;;;;;;;6.20;1.00;;;20.80;59.50;;;;;;5011960;28;20128;-63
2022/05/28 11:38:26;;;;;;;6.90;1.05;;;20.70;58.50;;;;;;5014142;28;20080;-62
2022/05/28 11:41:10;;;;;;;4.85;0.60;;;20.70;58.10;;;;;;5002922;28;20485;-63
2022/05/28 11:43:58;;;;;;;2.60;0.50;;;20.70;58.20;;;;;;5013082;28;20034;-64
2022/05/28 11:46:31;;;;;;;7.32;0.93;;;20.60;58.40;;;;;;5014152;28;20072;-59
2022/05/28 11:51:53;;;;;;;6.30;0.95;;;20.70;62.60;;;;;;5012624;28;20040;-63
2022/05/28 11:54:27;;;;;;;4.30;0.75;;;20.70;59.10;;;;;;5004223;28;20037;-64
2022/05/28 11:56:58;;;;;;;5.32;1.00;;;20.80;61.40;;;;;;5001215;28;20080;-63
2022/05/28 11:59:26;;;;;;;6.45;0.98;;;20.80;60.60;;;;;;5013306;28;20105;-64
2022/05/28 12:01:51;;;;;;;4.20;0.63;;;20.70;57.50;;;;;;5013195;28;20491;-64
2022/05/28 12:04:18;;;;;;;8.20;0.90;;;20.70;58.30;;;;;;5013089;28;20037;-64
2022/05/28 12:07:09;;;;;;;5.25;1.15;;;20.60;57.70;;;;;;5002237;28;20022;-64
2022/05/28 12:09:40;;;;;;;4.80;0.77;;;20.70;60.30;;;;;;5009322;28;20033;-61
2022/05/28 12:12:26;;;;;;;5.13;1.10;;;20.70;58.20;;;;;;5011966;28;20064;-64
2022/05/28 12:15:15;;;;;;;6.18;1.23;;;20.70;57.90;;;;;;5009849;28;20474;-63
2022/05/28 12:17:42;;;;;;;5.97;1.10;;;20.70;58.80;;;;;;5000347;28;20582;-64
2022/05/28 12:20:11;;;;;;;5.13;0.82;;;20.70;59.10;;;;;;4997869;28;20151;-63
2022/05/28 12:23:00;;;;;;;5.57;1.52;;;20.70;57.20;;;;;;5001876;28;20030;-62
2022/05/28 12:25:28;;;;;;;4.20;0.75;;;20.80;60.70;;;;;;4984785;28;20461;-63
2022/05/28 12:27:54;;;;;;;3.95;0.77;;;20.70;57.20;;;;;;5004698;28;20360;-60
2022/05/28 12:30:46;;;;;;;5.03;0.82;;;20.70;59.30;;;;;;5002984;28;20040;-63
2022/05/28 12:33:46;;;;;;;3.60;0.70;;;20.70;57.70;;;;;;5001073;28;20423;-64
2022/05/28 12:36:26;;;;;;;3.92;1.00;;;20.70;57.20;;;;;;5007841;28;20034;-64
2022/05/28 12:39:03;;;;;;;3.17;0.63;;;20.60;55.40;;;;;;5009164;28;20042;-63
2022/05/28 12:41:32;;;;;;;5.53;0.85;;;20.60;56.00;;;;;;5009626;28;20466;-63
2022/05/28 12:44:24;;;;;;;3.72;0.52;;;20.60;57.80;;;;;;5007729;28;20034;-63
2022/05/28 12:46:54;;;;;;;3.38;1.00;;;20.60;57.00;;;;;;5007403;28;20061;-63
2022/05/28 12:49:56;;;;;;;3.78;0.68;;;20.70;60.30;;;;;;5005221;28;20046;-62
2022/05/28 12:52:40;;;;;;;3.63;0.82;;;20.80;58.90;;;;;;5002700;28;20403;-64
2022/05/28 12:55:11;;;;;;;5.00;0.98;;;20.70;54.50;;;;;;5004187;28;20047;-64
2022/05/28 12:57:37;;;;;;;2.63;0.50;;;20.70;55.40;;;;;;5007192;28;20038;-63
2022/05/28 13:00:09;;;;;;;4.43;0.90;;;20.60;54.60;;;;;;5016954;28;20091;-63
2022/05/28 13:02:44;;;;;;;2.65;0.55;;;20.40;55.00;;;;;;5010296;28;20037;-64
2022/05/28 13:05:28;;;;;;;3.78;0.70;;;20.40;56.30;;;;;;5011380;28;20442;-64
2022/05/28 13:08:11;;;;;;;3.72;0.80;;;20.40;58.30;;;;;;5016052;28;20034;-59